Huseyn Javid — 9HLZ9 — position and weather

sailwx.info

Track history (hours):
 
Tides and Currents Weather Stations Pressure Air Temp Water Temp Dewpoint Dewpoint Depression Visibility Wind Speed Wind Dir Waves Ship Positions

Huseyn Javid

Last reported at 2017-Dec-07 20:33 UTC. Time now 2017-Dec-13 01:21 UTC.
Position N 32°49' E 035°02'.

Length 93 m; draft 5.4 m.

Type: Tanker. MMSI: 249162000.

Date/timePositionNaut miles runAvg speedWind from/ knotsBaromVisibWave heightAir tempDewpointWater temp
2017-Dec-07 20:33N 32°49' E 035°02'0 1.6
2017-Dec-07 20:30N 32°49' E 035°02'4 0.7
2017-Dec-07 14:41N 32°53' E 035°01'1 3.5
2017-Dec-07 14:25N 32°54' E 034°60'3 7.6
2017-Dec-07 13:58N 32°53' E 034°56'5 8.8
2017-Dec-07 13:23N 32°54' E 034°50'4 8.2
2017-Dec-07 12:50N 32°54' E 034°45'  
2017-Dec-03 17:00N 32°49' E 035°02'5 3.6
2017-Dec-03 15:41N 32°52' E 034°58'1 8.1
2017-Dec-03 15:30N 32°52' E 034°56'4 8.4
2017-Dec-03 15:00N 32°53' E 034°51'4 8.4
2017-Dec-03 14:30N 32°54' E 034°46'4 8.4
2017-Dec-03 14:00N 32°55' E 034°41'5 8.6
2017-Dec-03 13:29N 32°56' E 034°36'4 8.5
2017-Dec-03 12:59N 32°56' E 034°31'4 8.5
2017-Dec-03 12:29N 32°57' E 034°26'25 8.4
2017-Dec-03 09:29N 33°02' E 033°57'403 7.8
2017-Dec-01 05:54N 36°26' E 026°54'5 6.2
2017-Dec-01 05:07N 36°29' E 026°50'1 6.9
2017-Dec-01 04:58N 36°30' E 026°50'3 7.1
2017-Dec-01 04:29N 36°34' E 026°48'3 7.0
2017-Dec-01 04:00N 36°37' E 026°47'4 7.0
2017-Dec-01 03:30N 36°40' E 026°45'3 6.9
2017-Dec-01 03:00N 36°43' E 026°44'3 6.9
2017-Dec-01 02:30N 36°46' E 026°42'4 7.3
2017-Dec-01 02:00N 36°50' E 026°41'6 7.4
2017-Dec-01 01:08N 36°56' E 026°39'1 7.0
2017-Dec-01 01:00N 36°57' E 026°38'4 7.1
2017-Dec-01 00:30N 37°00' E 026°37'3 6.9
2017-Dec-01 00:00N 37°03' E 026°35'4 7.3
2017-Nov-30 23:30N 37°06' E 026°32'4 7.9
2017-Nov-30 23:00N 37°08' E 026°28'4 8.0
2017-Nov-30 22:30N 37°10' E 026°24'4 7.8
2017-Nov-30 22:00N 37°12' E 026°20'4 7.8
2017-Nov-30 21:30N 37°14' E 026°15'4 7.9
2017-Nov-30 21:00N 37°16' E 026°11'4 7.7
2017-Nov-30 20:30N 37°18' E 026°07'4 7.7
2017-Nov-30 20:00N 37°20' E 026°03'4 7.6
2017-Nov-30 19:30N 37°22' E 025°59'4 7.5
2017-Nov-30 19:00N 37°24' E 025°55'4 7.6
2017-Nov-30 18:30N 37°28' E 025°53'4 7.4
2017-Nov-30 18:00N 37°31' E 025°52'4 7.4
2017-Nov-30 17:30N 37°35' E 025°52'4 7.2
2017-Nov-30 16:58N 37°39' E 025°51'5 7.1
2017-Nov-30 16:16N 37°44' E 025°49'2 7.0
2017-Nov-30 16:00N 37°45' E 025°49'3 6.9
2017-Nov-30 15:30N 37°49' E 025°48'4 6.8
2017-Nov-30 14:59N 37°52' E 025°47'4 6.9
2017-Nov-30 14:25N 37°56' E 025°44'3 7.1
2017-Nov-30 14:00N 37°58' E 025°42'5 6.9
2017-Nov-30 13:17N 38°02' E 025°39'  
Track history (hours):
 
Tides and Currents Weather Stations Pressure Air Temp Water Temp Dewpoint Dewpoint Depression Visibility Wind Speed Wind Dir Waves Ship Positions

Huseyn Javid

Last reported at 2017-Dec-07 20:33 UTC. Time now 2017-Dec-13 01:21 UTC.
Position N 32°49' E 035°02'.

Length 93 m; draft 5.4 m.

Type: Tanker. MMSI: 249162000.

Date/timePositionNaut miles runAvg speedWind from/ knotsBaromVisibWave heightAir tempDewpointWater temp
2017-Dec-07 20:33N 32°49' E 035°02'0 1.6
2017-Dec-07 20:30N 32°49' E 035°02'4 0.7
2017-Dec-07 14:41N 32°53' E 035°01'1 3.5
2017-Dec-07 14:25N 32°54' E 034°60'3 7.6
2017-Dec-07 13:58N 32°53' E 034°56'5 8.8
2017-Dec-07 13:23N 32°54' E 034°50'4 8.2
2017-Dec-07 12:50N 32°54' E 034°45'  
2017-Dec-03 17:00N 32°49' E 035°02'5 3.6
2017-Dec-03 15:41N 32°52' E 034°58'1 8.1
2017-Dec-03 15:30N 32°52' E 034°56'4 8.4
2017-Dec-03 15:00N 32°53' E 034°51'4 8.4
2017-Dec-03 14:30N 32°54' E 034°46'4 8.4
2017-Dec-03 14:00N 32°55' E 034°41'5 8.6
2017-Dec-03 13:29N 32°56' E 034°36'4 8.5
2017-Dec-03 12:59N 32°56' E 034°31'4 8.5
2017-Dec-03 12:29N 32°57' E 034°26'25 8.4
2017-Dec-03 09:29N 33°02' E 033°57'403 7.8
2017-Dec-01 05:54N 36°26' E 026°54'5 6.2
2017-Dec-01 05:07N 36°29' E 026°50'1 6.9
2017-Dec-01 04:58N 36°30' E 026°50'3 7.1
2017-Dec-01 04:29N 36°34' E 026°48'3 7.0
2017-Dec-01 04:00N 36°37' E 026°47'4 7.0
2017-Dec-01 03:30N 36°40' E 026°45'3 6.9
2017-Dec-01 03:00N 36°43' E 026°44'3 6.9
2017-Dec-01 02:30N 36°46' E 026°42'4 7.3
2017-Dec-01 02:00N 36°50' E 026°41'6 7.4
2017-Dec-01 01:08N 36°56' E 026°39'1 7.0
2017-Dec-01 01:00N 36°57' E 026°38'4 7.1
2017-Dec-01 00:30N 37°00' E 026°37'3 6.9
2017-Dec-01 00:00N 37°03' E 026°35'4 7.3
2017-Nov-30 23:30N 37°06' E 026°32'4 7.9
2017-Nov-30 23:00N 37°08' E 026°28'4 8.0
2017-Nov-30 22:30N 37°10' E 026°24'4 7.8
2017-Nov-30 22:00N 37°12' E 026°20'4 7.8
2017-Nov-30 21:30N 37°14' E 026°15'4 7.9
2017-Nov-30 21:00N 37°16' E 026°11'4 7.7
2017-Nov-30 20:30N 37°18' E 026°07'4 7.7
2017-Nov-30 20:00N 37°20' E 026°03'4 7.6
2017-Nov-30 19:30N 37°22' E 025°59'4 7.5
2017-Nov-30 19:00N 37°24' E 025°55'4 7.6
2017-Nov-30 18:30N 37°28' E 025°53'4 7.4
2017-Nov-30 18:00N 37°31' E 025°52'4 7.4
2017-Nov-30 17:30N 37°35' E 025°52'4 7.2
2017-Nov-30 16:58N 37°39' E 025°51'5 7.1
2017-Nov-30 16:16N 37°44' E 025°49'2 7.0
2017-Nov-30 16:00N 37°45' E 025°49'3 6.9
2017-Nov-30 15:30N 37°49' E 025°48'4 6.8
2017-Nov-30 14:59N 37°52' E 025°47'4 6.9
2017-Nov-30 14:25N 37°56' E 025°44'3 7.1
2017-Nov-30 14:00N 37°58' E 025°42'5 6.9
2017-Nov-30 13:17N 38°02' E 025°39'  

Dump ship's entire track history